createdAt,value
2017-09-18T00:00:19.703Z,100850.37
2017-09-18T00:02:47.925Z,100849.28
2017-09-18T00:05:16.434Z,100842.83
2017-09-18T00:07:44.064Z,100852.23
2017-09-18T00:10:11.752Z,100850.94
2017-09-18T00:12:40.444Z,100846.76
2017-09-18T00:15:08.092Z,100844.64
2017-09-18T00:17:36.622Z,100846.42
2017-09-18T00:20:04.365Z,100847.34
2017-09-18T00:22:33.091Z,100849.78
2017-09-18T00:25:00.853Z,100850.44
2017-09-18T00:27:28.492Z,100848.02
2017-09-18T00:29:56.239Z,100848.41
2017-09-18T00:32:23.912Z,100852.86
2017-09-18T00:34:52.120Z,100853.67
2017-09-18T00:37:19.977Z,100855.02
2017-09-18T00:39:47.693Z,100852.06
2017-09-18T00:42:16.371Z,100849.25
2017-09-18T00:44:44.373Z,100844.27
2017-09-18T00:47:12.324Z,100850.58
2017-09-18T00:49:39.950Z,100845.72
2017-09-18T00:52:07.594Z,100847.05
2017-09-18T00:54:35.259Z,100848.15
2017-09-18T00:57:04.223Z,100841.95
2017-09-18T00:59:31.902Z,100846.26
2017-09-18T01:01:59.608Z,100848.39
2017-09-18T01:04:27.547Z,100855.38
2017-09-18T01:06:55.973Z,100851.36
2017-09-18T01:09:24.456Z,100856.61
2017-09-18T01:11:52.264Z,100860.48
2017-09-18T01:14:19.883Z,100855.13
2017-09-18T01:16:48.499Z,100856.45
2017-09-18T01:19:16.672Z,100853.63
2017-09-18T01:21:44.851Z,100853.78
2017-09-18T01:24:12.496Z,100854.73
2017-09-18T01:26:40.196Z,100858.75
2017-09-18T01:29:07.794Z,100854.71
2017-09-18T01:31:35.453Z,100859.80
2017-09-18T01:34:03.236Z,100860.89
2017-09-18T01:36:30.880Z,100860.48
2017-09-18T01:38:58.557Z,100858.97
2017-09-18T01:41:26.386Z,100852.90
2017-09-18T01:43:54.094Z,100855.09
2017-09-18T01:46:21.688Z,100852.50
2017-09-18T01:48:49.329Z,100854.96
2017-09-18T01:51:17.355Z,100856.55
2017-09-18T01:53:45.040Z,100856.23
2017-09-18T01:56:12.648Z,100855.73
2017-09-18T01:58:40.353Z,100851.81
2017-09-18T02:01:08.020Z,100852.09
2017-09-18T02:03:35.636Z,100851.51
2017-09-18T02:06:03.336Z,100852.77
2017-09-18T02:08:31.171Z,100856.12
2017-09-18T02:10:59.456Z,100858.31
2017-09-18T02:13:27.058Z,100865.91
2017-09-18T02:15:54.845Z,100859.23
2017-09-18T02:18:22.780Z,100860.16
2017-09-18T02:20:51.892Z,100867.11
2017-09-18T02:23:20.431Z,100864.00
2017-09-18T02:25:48.983Z,100862.48
2017-09-18T02:28:16.619Z,100863.78
2017-09-18T02:30:45.100Z,100863.95
2017-09-18T02:33:13.528Z,100862.50
2017-09-18T02:35:41.231Z,100866.78
2017-09-18T02:38:08.888Z,100865.70
2017-09-18T02:40:38.176Z,100866.52
2017-09-18T02:43:06.410Z,100864.99
2017-09-18T02:45:34.019Z,100864.58
2017-09-18T02:48:02.209Z,100865.66
2017-09-18T02:50:29.880Z,100870.23
2017-09-18T02:52:57.651Z,100876.30
2017-09-18T02:55:25.268Z,100877.84
2017-09-18T02:57:53.038Z,100876.64
2017-09-18T03:00:20.687Z,100871.02
2017-09-18T03:02:48.876Z,100871.56
2017-09-18T03:05:16.516Z,100869.31
2017-09-18T03:07:44.926Z,100879.80
2017-09-18T03:10:13.060Z,100877.25
2017-09-18T03:12:40.732Z,100878.09
2017-09-18T03:15:09.523Z,100879.45
2017-09-18T03:17:37.163Z,100881.47
2017-09-18T03:20:04.831Z,100884.55
2017-09-18T03:22:32.491Z,100881.17
2017-09-18T03:25:00.916Z,100884.39
2017-09-18T03:27:28.524Z,100880.13
2017-09-18T03:29:57.157Z,100875.67
2017-09-18T03:32:24.801Z,100876.22
2017-09-18T03:34:53.203Z,100882.08
2017-09-18T03:37:20.841Z,100879.38
2017-09-18T03:39:49.397Z,100874.93
2017-09-18T03:42:16.995Z,100870.83
2017-09-18T03:44:44.655Z,100875.00
2017-09-18T03:47:12.308Z,100862.41
2017-09-18T03:49:39.976Z,100865.91
2017-09-18T03:52:07.691Z,100867.63
2017-09-18T03:54:35.387Z,100872.85
2017-09-18T03:57:02.989Z,100866.12
2017-09-18T03:59:31.576Z,100868.04
2017-09-18T04:02:00.155Z,100874.51
2017-09-18T04:04:27.795Z,100873.28
2017-09-18T04:06:55.833Z,100874.34
2017-09-18T04:09:23.492Z,100869.20
2017-09-18T04:11:51.203Z,100868.33
2017-09-18T04:14:19.330Z,100873.70
2017-09-18T04:16:47.042Z,100879.42
2017-09-18T04:19:15.812Z,100874.36
2017-09-18T04:21:43.681Z,100870.51
2017-09-18T04:24:12.091Z,100878.70
2017-09-18T04:26:39.747Z,100872.77
2017-09-18T04:29:08.298Z,100874.77
2017-09-18T04:31:35.929Z,100874.06
2017-09-18T04:34:03.565Z,100876.59
2017-09-18T04:36:31.196Z,100882.40
2017-09-18T04:38:58.803Z,100879.77
2017-09-18T04:41:26.527Z,100886.45
2017-09-18T04:43:54.140Z,100882.25
2017-09-18T04:46:21.810Z,100880.12
2017-09-18T04:48:49.443Z,100888.06
2017-09-18T04:51:17.667Z,100889.78
2017-09-18T04:53:45.431Z,100886.14
2017-09-18T04:56:13.147Z,100884.67
2017-09-18T04:58:40.767Z,100888.21
2017-09-18T05:01:08.423Z,100895.58
2017-09-18T05:03:36.903Z,100893.09
2017-09-18T05:06:05.295Z,100902.83
2017-09-18T05:08:32.916Z,100901.50
2017-09-18T05:11:00.601Z,100899.50
2017-09-18T05:13:28.596Z,100904.00
2017-09-18T05:15:57.132Z,100905.84
2017-09-18T05:18:25.585Z,100905.39
2017-09-18T05:20:53.304Z,100906.55
2017-09-18T05:23:21.732Z,100906.02
2017-09-18T05:25:49.370Z,100912.84
2017-09-18T05:28:17.068Z,100902.54
2017-09-18T05:30:45.327Z,100904.89
2017-09-18T05:33:12.928Z,100900.37
2017-09-18T05:35:40.559Z,100902.54
2017-09-18T05:38:08.242Z,100909.98
2017-09-18T05:40:36.549Z,100909.19
2017-09-18T05:43:04.617Z,100914.44
2017-09-18T05:45:33.127Z,100916.30
2017-09-18T05:48:01.692Z,100916.13
2017-09-18T05:50:29.300Z,100916.98
2017-09-18T05:52:56.996Z,100926.59
2017-09-18T05:55:24.642Z,100931.95
2017-09-18T05:57:53.648Z,100924.80
2017-09-18T06:00:21.258Z,100922.78
2017-09-18T06:02:48.902Z,100919.45
2017-09-18T06:05:16.512Z,100919.27
2017-09-18T06:07:44.174Z,100922.77
2017-09-18T06:10:11.798Z,100917.33
2017-09-18T06:12:39.436Z,100916.14
2017-09-18T06:15:07.850Z,100916.58
2017-09-18T06:17:35.496Z,100912.39
2017-09-18T06:20:03.562Z,100915.87
2017-09-18T06:22:31.240Z,100913.20
2017-09-18T06:24:59.067Z,100911.91
2017-09-18T06:27:27.260Z,100914.48
2017-09-18T06:29:54.876Z,100911.40
2017-09-18T06:32:22.580Z,100914.24
2017-09-18T06:34:50.228Z,100916.11
2017-09-18T06:37:17.880Z,100914.88
2017-09-18T06:39:46.345Z,100914.23
2017-09-18T06:42:14.003Z,100917.19
2017-09-18T06:44:41.615Z,100919.63
2017-09-18T06:47:09.995Z,100918.17
2017-09-18T06:49:37.609Z,100916.73
2017-09-18T06:52:05.255Z,100911.44
2017-09-18T06:54:32.899Z,100909.69
2017-09-18T06:57:00.531Z,100913.73
2017-09-18T06:59:28.159Z,100915.84
2017-09-18T07:01:56.703Z,100914.27
2017-09-18T07:04:24.299Z,100911.89
2017-09-18T07:06:51.935Z,100907.23
2017-09-18T07:09:19.531Z,100911.32
2017-09-18T07:11:47.159Z,100911.23
2017-09-18T07:14:14.758Z,100916.88
2017-09-18T07:16:42.380Z,100917.82
2017-09-18T07:19:09.974Z,100912.58
2017-09-18T07:21:37.637Z,100917.25
2017-09-18T07:24:05.236Z,100923.28
2017-09-18T07:26:32.858Z,100929.75
2017-09-18T07:29:00.587Z,100928.52
2017-09-18T07:31:28.184Z,100925.83
2017-09-18T07:33:55.818Z,100932.30
2017-09-18T07:36:23.411Z,100929.63
2017-09-18T07:38:51.034Z,100933.11
2017-09-18T07:41:18.651Z,100940.78
2017-09-18T07:43:46.302Z,100936.91
2017-09-18T07:46:13.890Z,100933.27
2017-09-18T07:48:41.522Z,100936.09
2017-09-18T07:51:09.106Z,100937.19
2017-09-18T07:53:36.750Z,100944.59
2017-09-18T07:56:04.346Z,100938.00
2017-09-18T07:58:32.046Z,100939.73
2017-09-18T08:00:59.643Z,100940.27
2017-09-18T08:03:27.281Z,100938.27
2017-09-18T08:05:54.881Z,100939.23
2017-09-18T08:08:22.493Z,100941.91
2017-09-18T08:10:50.078Z,100938.25
2017-09-18T08:13:17.715Z,100943.78
2017-09-18T08:15:46.960Z,100948.53
2017-09-18T08:18:14.581Z,100946.52
2017-09-18T08:20:42.184Z,100943.98
2017-09-18T08:23:09.846Z,100949.61
2017-09-18T08:25:37.464Z,100947.19
2017-09-18T08:28:05.093Z,100943.44
2017-09-18T08:30:32.679Z,100947.88
2017-09-18T08:33:00.298Z,100948.81
2017-09-18T08:35:27.899Z,100952.71
2017-09-18T08:37:55.526Z,100954.88
2017-09-18T08:40:23.135Z,100955.13
2017-09-18T08:42:50.770Z,100958.22
2017-09-18T08:45:18.382Z,100948.81
2017-09-18T08:47:46.028Z,100942.48
2017-09-18T08:50:13.646Z,100957.41
2017-09-18T08:52:41.336Z,100953.23
2017-09-18T08:55:08.938Z,100951.38
2017-09-18T08:57:36.693Z,100954.45
2017-09-18T09:00:04.291Z,100948.14
2017-09-18T09:02:31.928Z,100952.83
2017-09-18T09:04:59.534Z,100956.06
2017-09-18T09:07:27.176Z,100957.38
2017-09-18T09:09:54.804Z,100962.48
2017-09-18T09:12:22.522Z,100956.31
2017-09-18T09:14:50.142Z,100957.38
2017-09-18T09:17:17.771Z,100957.10
2017-09-18T09:19:45.406Z,100960.31
2017-09-18T09:22:13.059Z,100952.37
2017-09-18T09:24:40.722Z,100955.61
2017-09-18T09:27:08.426Z,100952.51
2017-09-18T09:29:36.008Z,100959.23
2017-09-18T09:32:03.662Z,100955.76
2017-09-18T09:34:31.340Z,100963.41
2017-09-18T09:36:58.966Z,100960.48
2017-09-18T09:39:26.564Z,100965.31
2017-09-18T09:41:54.230Z,100955.52
2017-09-18T09:44:21.880Z,100964.80
2017-09-18T09:46:49.534Z,100963.31
2017-09-18T09:49:17.140Z,100965.86
2017-09-18T09:51:44.730Z,100966.66
2017-09-18T09:54:12.376Z,100974.86
2017-09-18T09:56:39.992Z,100977.69
2017-09-18T09:59:07.632Z,100982.00
2017-09-18T10:01:35.231Z,100984.69
2017-09-18T10:04:02.873Z,100988.05
2017-09-18T10:06:30.485Z,100986.47
2017-09-18T10:08:58.139Z,100984.98
2017-09-18T10:11:25.786Z,100985.65
2017-09-18T10:13:53.463Z,100987.27
2017-09-18T10:16:21.127Z,100984.97
2017-09-18T10:18:48.767Z,100986.59
2017-09-18T10:21:16.367Z,100989.14
2017-09-18T10:23:44.040Z,100992.08
2017-09-18T10:26:11.659Z,100995.72
2017-09-18T10:28:39.346Z,100990.73
2017-09-18T10:31:06.952Z,100991.55
2017-09-18T10:33:34.626Z,100988.07
2017-09-18T10:36:02.219Z,100993.04
2017-09-18T10:38:29.855Z,100991.28
2017-09-18T10:40:57.463Z,100999.18
2017-09-18T10:43:25.126Z,100992.44
2017-09-18T10:45:52.750Z,100993.63
2017-09-18T10:48:20.447Z,100993.19
2017-09-18T10:50:48.051Z,100995.51
2017-09-18T10:53:15.671Z,100996.04
2017-09-18T10:55:43.315Z,100995.84
2017-09-18T10:58:10.910Z,100996.36
2017-09-18T11:00:38.804Z,100999.14
2017-09-18T11:03:06.390Z,100996.73
2017-09-18T11:05:34.035Z,100996.25
2017-09-18T11:08:01.642Z,101001.28
2017-09-18T11:10:29.290Z,100988.52
2017-09-18T11:12:56.975Z,100994.47
2017-09-18T11:15:24.632Z,100992.44
2017-09-18T11:17:52.288Z,100991.91
2017-09-18T11:20:19.913Z,100987.88
2017-09-18T11:22:47.568Z,100990.39
2017-09-18T11:25:15.198Z,100984.58
2017-09-18T11:27:43.004Z,100985.64
2017-09-18T11:30:10.626Z,100984.14
2017-09-18T11:32:38.251Z,100980.35
2017-09-18T11:35:05.902Z,100978.45
2017-09-18T11:37:33.499Z,100972.45
2017-09-18T11:40:01.126Z,100965.77
2017-09-18T11:42:28.744Z,100962.81
2017-09-18T11:44:56.394Z,100967.39
2017-09-18T11:47:24.022Z,100963.27
2017-09-18T11:49:51.646Z,100964.83
2017-09-18T11:52:19.253Z,100960.74
2017-09-18T11:54:46.901Z,100955.16
2017-09-18T11:57:14.498Z,100953.93
2017-09-18T11:59:42.094Z,100952.40
2017-09-18T12:02:09.747Z,100950.39
2017-09-18T12:04:37.367Z,100949.53
2017-09-18T12:07:05.031Z,100944.40
2017-09-18T12:09:32.626Z,100952.77
2017-09-18T12:12:00.248Z,100945.92
2017-09-18T12:14:27.862Z,100954.12
2017-09-18T12:16:55.499Z,100949.59
2017-09-18T12:19:23.098Z,100951.39
2017-09-18T12:21:50.739Z,100946.98
2017-09-18T12:24:18.334Z,100952.75
2017-09-18T12:26:45.978Z,100945.33
2017-09-18T12:29:13.571Z,100946.23
2017-09-18T12:31:41.201Z,100941.52
2017-09-18T12:34:08.810Z,100944.81
2017-09-18T12:36:36.438Z,100937.91
2017-09-18T12:39:04.070Z,100942.95
2017-09-18T12:41:31.706Z,100938.36
2017-09-18T12:43:59.301Z,100942.03
2017-09-18T12:46:26.933Z,100941.09
2017-09-18T12:48:54.589Z,100944.48
2017-09-18T12:51:22.219Z,100938.55
2017-09-18T12:53:49.823Z,100941.50
2017-09-18T12:56:17.434Z,100940.20
2017-09-18T12:58:45.079Z,100937.52
2017-09-18T13:01:12.768Z,100939.94
2017-09-18T13:03:40.396Z,100937.05
2017-09-18T13:06:08.055Z,100936.47
2017-09-18T13:08:35.681Z,100937.72
2017-09-18T13:11:03.339Z,100936.16
2017-09-18T13:13:30.923Z,100929.24
2017-09-18T13:15:58.526Z,100925.83
2017-09-18T13:18:26.141Z,100924.30
2017-09-18T13:20:53.743Z,100925.61
2017-09-18T13:23:21.358Z,100918.78
2017-09-18T13:25:48.966Z,100920.77
2017-09-18T13:28:16.603Z,100920.30
2017-09-18T13:30:44.194Z,100921.41
2017-09-18T13:33:11.830Z,100918.03
2017-09-18T13:35:39.431Z,100926.31
2017-09-18T13:38:07.046Z,100925.33
2017-09-18T13:40:34.770Z,100916.06
2017-09-18T13:43:02.415Z,100922.70
2017-09-18T13:45:30.042Z,100911.80
2017-09-18T13:47:57.700Z,100911.28
2017-09-18T13:50:25.314Z,100923.03
2017-09-18T13:52:53.022Z,100921.37
2017-09-18T13:55:20.643Z,100913.47
2017-09-18T13:57:48.278Z,100916.56
2017-09-18T14:00:15.880Z,100909.09
2017-09-18T14:02:43.507Z,100919.16
2017-09-18T14:05:11.127Z,100911.89
2017-09-18T14:07:38.863Z,100910.47
2017-09-18T14:10:06.476Z,100915.27
2017-09-18T14:12:34.098Z,100913.55
2017-09-18T14:15:01.753Z,100909.30
2017-09-18T14:17:29.415Z,100907.08
2017-09-18T14:19:57.019Z,100904.29
2017-09-18T14:22:24.648Z,100907.13
2017-09-18T14:24:52.296Z,100904.80
2017-09-18T14:27:19.910Z,100902.95
2017-09-18T14:29:47.555Z,100907.20
2017-09-18T14:32:15.146Z,100907.47
2017-09-18T14:34:42.786Z,100906.36
2017-09-18T14:37:10.457Z,100900.41
2017-09-18T14:39:38.106Z,100899.76
2017-09-18T14:42:05.691Z,100900.78
2017-09-18T14:44:33.347Z,100901.23
2017-09-18T14:47:00.948Z,100904.83
2017-09-18T14:49:28.627Z,100907.67
2017-09-18T14:51:56.238Z,100908.63
2017-09-18T14:54:23.955Z,100915.58
2017-09-18T14:56:51.571Z,100912.71
2017-09-18T14:59:19.218Z,100911.16
2017-09-18T15:01:46.818Z,100918.25
2017-09-18T15:04:14.447Z,100915.26
2017-09-18T15:06:42.064Z,100916.79
2017-09-18T15:09:09.726Z,100912.41
2017-09-18T15:11:37.360Z,100917.88
2017-09-18T15:14:04.998Z,100924.02
2017-09-18T15:16:32.625Z,100918.11
2017-09-18T15:19:00.259Z,100920.96
2017-09-18T15:21:27.896Z,100919.08
2017-09-18T15:23:55.492Z,100925.09
2017-09-18T15:26:23.167Z,100918.64
2017-09-18T15:28:50.941Z,100916.17
2017-09-18T15:31:18.587Z,100912.48
2017-09-18T15:33:46.206Z,100971.79
2017-09-18T15:36:13.882Z,100968.55
2017-09-18T15:38:41.609Z,100969.64
2017-09-18T15:41:09.252Z,100962.13
2017-09-18T15:43:36.852Z,100966.38
2017-09-18T15:46:04.608Z,100966.73
2017-09-18T15:48:32.259Z,100956.96
2017-09-18T15:50:59.898Z,100953.97
2017-09-18T15:53:27.498Z,100960.88
2017-09-18T15:55:55.145Z,100960.24
2017-09-18T15:58:22.754Z,100962.31
2017-09-18T16:00:50.438Z,100962.59
2017-09-18T16:03:18.237Z,100956.03
2017-09-18T16:05:45.903Z,100959.86
2017-09-18T16:08:13.542Z,100951.30
2017-09-18T16:10:41.142Z,100950.90
2017-09-18T16:13:08.786Z,100955.52
2017-09-18T16:15:36.394Z,100959.20
2017-09-18T16:18:04.054Z,100959.20
2017-09-18T16:20:32.632Z,100969.30
2017-09-18T16:23:01.954Z,100971.58
2017-09-18T16:25:29.720Z,100975.61
2017-09-18T16:27:57.627Z,100971.06
2017-09-18T16:30:26.618Z,100977.28
2017-09-18T16:32:54.455Z,100984.25
2017-09-18T16:35:22.324Z,100986.79
2017-09-18T16:37:50.468Z,100989.07
2017-09-18T16:40:18.152Z,100989.63
2017-09-18T16:42:46.525Z,100997.31
2017-09-18T16:45:14.289Z,100995.45
2017-09-18T16:47:42.477Z,100992.10
2017-09-18T16:50:10.652Z,100996.93
2017-09-18T16:52:39.176Z,100996.80
2017-09-18T16:55:07.031Z,100990.73
2017-09-18T16:57:34.829Z,100991.01
2017-09-18T17:00:03.383Z,100990.48
2017-09-18T17:02:31.071Z,100995.45
2017-09-18T17:04:58.727Z,101000.28
2017-09-18T17:07:27.229Z,100993.58
2017-09-18T17:09:55.749Z,101001.91
2017-09-18T17:12:23.564Z,101004.73
2017-09-18T17:14:51.644Z,101002.94
2017-09-18T17:17:19.369Z,100999.08
2017-09-18T17:19:47.209Z,100993.45
2017-09-18T17:22:15.175Z,100994.92
2017-09-18T17:24:44.501Z,101002.58
2017-09-18T17:27:13.051Z,101003.11
2017-09-18T17:29:41.159Z,100997.59
2017-09-18T17:32:09.476Z,101002.97
2017-09-18T17:34:37.852Z,100998.80
2017-09-18T17:37:05.476Z,100996.14
2017-09-18T17:39:34.113Z,100995.04
2017-09-18T17:42:02.545Z,100999.48
2017-09-18T17:44:30.188Z,101001.91
2017-09-18T17:46:58.814Z,101001.91
2017-09-18T17:49:26.763Z,101006.46
2017-09-18T17:51:54.800Z,101007.77
2017-09-18T17:54:22.680Z,101007.66
2017-09-18T17:56:50.299Z,101004.82
2017-09-18T17:59:18.054Z,101008.83
2017-09-18T18:01:45.711Z,101006.56
2017-09-18T18:04:13.411Z,101015.46
2017-09-18T18:06:41.799Z,101012.50
2017-09-18T18:09:09.464Z,101015.05
2017-09-18T18:11:37.821Z,101012.36
2017-09-18T18:14:05.940Z,101014.39
2017-09-18T18:16:33.595Z,101019.50
2017-09-18T18:19:01.268Z,101014.80
2017-09-18T18:21:28.961Z,101011.84
2017-09-18T18:23:57.709Z,101018.31
2017-09-18T18:26:25.467Z,101015.36
2017-09-18T18:28:53.620Z,101018.84
2017-09-18T18:31:21.265Z,101023.95
2017-09-18T18:33:49.748Z,101032.95
2017-09-18T18:36:17.395Z,101038.75
2017-09-18T18:38:46.583Z,101038.86
2017-09-18T18:41:14.280Z,101041.72
2017-09-18T18:43:42.011Z,101040.37
2017-09-18T18:46:09.897Z,101034.47
2017-09-18T18:48:38.399Z,101035.26
2017-09-18T18:51:06.540Z,101040.63
2017-09-18T18:53:34.195Z,101041.05
2017-09-18T18:56:01.865Z,101043.59
2017-09-18T18:58:30.676Z,101045.08
2017-09-18T19:00:58.366Z,101047.36
2017-09-18T19:03:27.371Z,101051.54
2017-09-18T19:05:55.909Z,101055.44
2017-09-18T19:08:23.585Z,101054.89
2017-09-18T19:10:52.233Z,101056.10
2017-09-18T19:13:20.797Z,101058.93
2017-09-18T19:15:48.549Z,101057.31
2017-09-18T19:18:17.336Z,101051.38
2017-09-18T19:20:45.315Z,101055.69
2017-09-18T19:23:12.975Z,101053.70
2017-09-18T19:25:41.241Z,101057.46
2017-09-18T19:28:09.622Z,101051.55
2017-09-18T19:30:38.624Z,101047.52
2017-09-18T19:33:07.072Z,101048.86
2017-09-18T19:35:34.907Z,101046.70
2017-09-18T19:38:02.720Z,101046.15
2017-09-18T19:40:30.449Z,101053.28
2017-09-18T19:42:58.348Z,101044.02
2017-09-18T19:45:29.038Z,101041.97
2017-09-18T19:47:56.764Z,101042.52
2017-09-18T19:50:24.449Z,101041.05
2017-09-18T19:52:52.713Z,101041.05
2017-09-18T19:55:20.361Z,101039.71
2017-09-18T19:57:47.980Z,101036.48
2017-09-18T20:00:15.685Z,101042.94
2017-09-18T20:02:43.888Z,101044.15
2017-09-18T20:05:11.617Z,101041.32
2017-09-18T20:07:40.173Z,101041.46
2017-09-18T20:10:07.840Z,101040.36
2017-09-18T20:12:36.111Z,101044.94
2017-09-18T20:15:03.772Z,101042.53
2017-09-18T20:17:31.404Z,101045.36
2017-09-18T20:19:59.183Z,101045.36
2017-09-18T20:22:26.848Z,101046.57
2017-09-18T20:24:54.600Z,101050.87
2017-09-18T20:27:23.232Z,101049.26
2017-09-18T20:29:51.606Z,101049.26
2017-09-18T20:32:19.539Z,101052.88
2017-09-18T20:34:48.043Z,101057.04
2017-09-18T20:37:16.241Z,101053.70
2017-09-18T20:39:43.906Z,101051.01
2017-09-18T20:42:11.546Z,101054.77
2017-09-18T20:44:39.229Z,101048.72
2017-09-18T20:47:06.962Z,101057.45
2017-09-18T20:49:34.665Z,101057.05
2017-09-18T20:52:02.306Z,101061.48
2017-09-18T20:54:29.978Z,101056.91
2017-09-18T20:56:57.582Z,101066.59
2017-09-18T20:59:25.249Z,101062.55
2017-09-18T21:01:52.855Z,101071.30
2017-09-18T21:04:20.689Z,101067.00
2017-09-18T21:06:48.493Z,101071.32
2017-09-18T21:09:16.158Z,101067.39
2017-09-18T21:11:43.826Z,101067.27
2017-09-18T21:14:11.723Z,101061.20
2017-09-18T21:16:39.388Z,101061.48
2017-09-18T21:19:07.211Z,101066.72
2017-09-18T21:21:36.540Z,101065.80
2017-09-18T21:24:04.305Z,101064.97
2017-09-18T21:26:32.840Z,101061.63
2017-09-18T21:29:00.516Z,101057.73
2017-09-18T21:31:28.330Z,101058.39
2017-09-18T21:33:55.963Z,101062.56
2017-09-18T21:36:23.610Z,101060.00
2017-09-18T21:38:51.241Z,101057.86
2017-09-18T21:41:18.993Z,101061.74
2017-09-18T21:43:46.580Z,101059.45
2017-09-18T21:46:14.214Z,101070.64
2017-09-18T21:48:41.839Z,101067.95
2017-09-18T21:51:09.526Z,101068.06
2017-09-18T21:53:37.188Z,101065.11
2017-09-18T21:56:04.888Z,101066.61
2017-09-18T21:58:32.492Z,101067.54
2017-09-18T22:01:00.193Z,101063.91
2017-09-18T22:03:27.838Z,101059.33
2017-09-18T22:05:55.522Z,101060.53
2017-09-18T22:08:23.142Z,101060.53
2017-09-18T22:10:50.762Z,101062.69
2017-09-18T22:13:18.375Z,101057.73
2017-09-18T22:15:46.058Z,101054.06
2017-09-18T22:18:13.651Z,101062.95
2017-09-18T22:20:41.270Z,101063.50
2017-09-18T22:23:08.885Z,101059.85
2017-09-18T22:25:36.534Z,101058.52
2017-09-18T22:28:04.135Z,101061.34
2017-09-18T22:30:31.783Z,101059.31
2017-09-18T22:32:59.390Z,101061.34
2017-09-18T22:35:27.023Z,101058.66
2017-09-18T22:37:54.640Z,101058.94
2017-09-18T22:40:22.255Z,101058.94
2017-09-18T22:42:49.862Z,101058.52
2017-09-18T22:45:17.491Z,101057.97
2017-09-18T22:47:45.102Z,101059.58
2017-09-18T22:50:12.717Z,101053.13
2017-09-18T22:52:40.339Z,101060.53
2017-09-18T22:55:07.968Z,101051.78
2017-09-18T22:57:35.586Z,101054.75
2017-09-18T23:00:03.213Z,101055.43
2017-09-18T23:02:30.810Z,101050.44
2017-09-18T23:04:58.500Z,101048.17
2017-09-18T23:07:26.095Z,101049.78
2017-09-18T23:09:53.719Z,101050.31
2017-09-18T23:12:21.352Z,101051.24
2017-09-18T23:14:48.980Z,101052.59
2017-09-18T23:17:16.576Z,101049.91
2017-09-18T23:19:44.204Z,101047.63
2017-09-18T23:22:11.802Z,101053.00
2017-09-18T23:24:39.447Z,101045.33
2017-09-18T23:27:07.068Z,101049.37
2017-09-18T23:29:34.707Z,101048.30
2017-09-18T23:32:02.314Z,101052.61
2017-09-18T23:34:29.942Z,101054.89
2017-09-18T23:36:57.544Z,101057.02
2017-09-18T23:39:25.227Z,101058.92
2017-09-18T23:41:52.830Z,101057.02
2017-09-18T23:44:20.428Z,101065.22
2017-09-18T23:46:48.059Z,101060.78
2017-09-18T23:49:15.967Z,101056.34
2017-09-18T23:51:43.591Z,101066.02
2017-09-18T23:54:11.208Z,101064.02
2017-09-18T23:56:38.868Z,101061.70
2017-09-18T23:59:06.463Z,101060.64
